createdAt,value
2023-02-14T00:08:06.264Z,2.50
2023-02-14T00:18:11.726Z,2.40
2023-02-14T00:28:15.596Z,2.40
2023-02-14T00:38:20.801Z,2.40
2023-02-14T00:48:24.501Z,2.30
2023-02-14T00:58:29.819Z,2.30
2023-02-14T01:08:33.596Z,2.20
2023-02-14T01:18:42.056Z,2.30
2023-02-14T01:28:47.175Z,2.20
2023-02-14T01:38:56.873Z,2.20
2023-02-14T01:49:05.805Z,2.20
2023-02-14T01:59:18.216Z,2.10
2023-02-14T02:09:27.638Z,2.10
2023-02-14T02:20:32.652Z,2.00
2023-02-14T02:31:10.858Z,2.00
2023-02-14T02:41:27.849Z,2.00
2023-02-14T02:51:58.417Z,2.00
2023-02-14T03:02:11.388Z,2.00
2023-02-14T03:12:26.670Z,2.00
2023-02-14T03:22:45.765Z,1.90
2023-02-14T03:32:57.193Z,1.90
2023-02-14T03:43:09.044Z,1.90
2023-02-14T03:53:14.399Z,2.00
2023-02-14T04:03:21.876Z,2.00
2023-02-14T04:13:25.675Z,2.00
2023-02-14T04:23:30.983Z,1.90
2023-02-14T04:33:35.600Z,1.90
2023-02-14T04:43:40.920Z,2.00
2023-02-14T04:53:44.747Z,2.00
2023-02-14T05:03:49.993Z,2.00
2023-02-14T05:13:53.866Z,1.90
2023-02-14T05:23:59.155Z,2.00
2023-02-14T05:34:02.998Z,2.00
2023-02-14T05:44:08.257Z,2.00
2023-02-14T05:54:11.918Z,2.00
2023-02-14T06:04:17.243Z,2.00
2023-02-14T06:14:24.207Z,2.00
2023-02-14T06:24:29.569Z,1.90
2023-02-14T06:34:33.755Z,2.00
2023-02-14T06:44:38.960Z,2.00
2023-02-14T06:54:42.764Z,2.20
2023-02-14T07:04:48.043Z,2.40
2023-02-14T07:14:51.786Z,2.50
2023-02-14T07:24:56.788Z,2.60
2023-02-14T07:35:00.524Z,2.70
2023-02-14T07:45:20.724Z,2.80
2023-02-14T07:55:26.075Z,3.10
2023-02-14T08:05:31.682Z,3.30
2023-02-14T08:15:54.082Z,3.40
2023-02-14T08:25:59.684Z,3.60
2023-02-14T08:36:04.017Z,3.70
2023-02-14T08:46:09.193Z,4.00
2023-02-14T08:56:15.755Z,4.40
2023-02-14T09:06:20.965Z,4.70
2023-02-14T09:16:26.271Z,4.80
2023-02-14T09:26:31.577Z,4.90
2023-02-14T09:36:35.701Z,5.30
2023-02-14T09:46:48.295Z,5.50
2023-02-14T09:56:58.320Z,5.80
2023-02-14T10:07:15.709Z,5.90
2023-02-14T10:17:29.502Z,5.60
2023-02-14T10:27:39.687Z,5.60
2023-02-14T10:38:00.331Z,5.60
2023-02-14T10:48:16.807Z,5.40
2023-02-14T10:58:23.792Z,5.40
2023-02-14T11:08:34.418Z,5.50
2023-02-14T11:18:40.132Z,5.40
2023-02-14T11:28:55.925Z,5.30
2023-02-14T11:39:08.899Z,5.30
2023-02-14T11:49:28.845Z,5.10
2023-02-14T11:59:38.549Z,5.10
2023-02-14T12:09:44.432Z,5.40
2023-02-14T12:19:55.001Z,5.60
2023-02-14T12:30:08.566Z,5.70
2023-02-14T12:40:22.025Z,5.80
2023-02-14T12:50:39.917Z,6.00
2023-02-14T13:00:55.906Z,6.00
2023-02-14T13:11:12.232Z,5.90
2023-02-14T13:21:19.834Z,6.20
2023-02-14T13:31:25.740Z,6.30
2023-02-14T13:41:30.473Z,5.90
2023-02-14T13:51:50.842Z,5.70
2023-02-14T14:01:54.859Z,5.50
2023-02-14T14:12:02.374Z,5.60
2023-02-14T14:22:10.376Z,5.50
2023-02-14T14:32:22.699Z,5.10
2023-02-14T14:42:30.694Z,5.00
2023-02-14T14:52:38.624Z,5.10
2023-02-14T15:02:42.373Z,4.90
2023-02-14T15:13:04.845Z,4.60
2023-02-14T15:23:09.145Z,4.40
2023-02-14T15:33:14.459Z,4.30
2023-02-14T15:43:30.944Z,4.20
2023-02-14T15:53:42.666Z,4.10
2023-02-14T16:03:57.224Z,3.90
2023-02-14T16:14:30.404Z,3.90
2023-02-14T16:24:36.054Z,3.80
2023-02-14T16:34:41.683Z,3.80
2023-02-14T16:44:45.738Z,3.70
2023-02-14T16:54:50.920Z,3.70
2023-02-14T17:04:54.710Z,3.70
2023-02-14T17:15:06.073Z,3.60
2023-02-14T17:25:11.272Z,3.40
2023-02-14T17:35:16.631Z,3.30
2023-02-14T17:45:20.537Z,3.30
2023-02-14T17:55:25.819Z,3.30
2023-02-14T18:05:29.489Z,3.20
2023-02-14T18:15:35.160Z,3.20
2023-02-14T18:25:38.828Z,3.10
2023-02-14T18:35:43.804Z,3.20
2023-02-14T18:45:47.641Z,3.10
2023-02-14T18:55:52.948Z,3.00
2023-02-14T19:06:00.405Z,2.90
2023-02-14T19:16:12.579Z,2.90
2023-02-14T19:26:20.590Z,2.90
2023-02-14T19:36:25.965Z,2.80
2023-02-14T19:46:30.872Z,2.70
2023-02-14T19:56:38.655Z,2.70
2023-02-14T20:06:43.683Z,2.60
2023-02-14T20:16:50.411Z,2.60
2023-02-14T20:26:54.845Z,2.60
2023-02-14T20:37:00.482Z,2.50
2023-02-14T20:47:04.247Z,2.50
2023-02-14T20:57:09.449Z,2.50
2023-02-14T21:07:13.116Z,2.40
2023-02-14T21:17:18.677Z,2.40
2023-02-14T21:27:22.489Z,2.40
2023-02-14T21:37:28.060Z,2.30
2023-02-14T21:47:31.921Z,2.30
2023-02-14T21:57:37.121Z,2.30
2023-02-14T22:07:40.707Z,2.40
2023-02-14T22:17:45.901Z,2.30
2023-02-14T22:27:49.623Z,2.30
2023-02-14T22:37:54.728Z,2.30
2023-02-14T22:47:58.392Z,2.30
2023-02-14T22:58:04.616Z,2.20
2023-02-14T23:08:08.236Z,2.10
2023-02-14T23:18:32.064Z,2.20
2023-02-14T23:28:36.014Z,2.20
2023-02-14T23:38:41.136Z,2.20
2023-02-14T23:48:45.256Z,2.20
2023-02-14T23:58:50.429Z,2.20
